DFW weather

Dallas Fort Worth International Airport
Dallas-Fort Worth, Texas, United States

Public forecast

Using degrees Fahrenheit for public forecast. Weather courtesy of forecast.io.

METAR (pilot weather report)

Retrieved 2019/02/17 12:53 UTC (1 hour ago):

KDFW 171253Z 35016KT 8SM OVC011 05/03 A2987 RMK AO2 SLP114 T00500033 $

TAF (pilot weather forecast)

Retrieved 2019/02/17 12:27 UTC (1 hour ago):

TAF KDFW 171125Z 1712/1818 36013KT 6SM BR OVC007 TEMPO 1712/1713 3SM -DZ BR OVC005 FM171400 35014KT P6SM BKN012 FM171600 36015G20KT P6SM SCT020 BKN250 FM172000 02011KT P6SM SCT300